Time;durP1;ratioP1;P1;durP2;ratioP2;P2;SDS_P1;SDS_P2;PMS_P1;PMS_P2;Temp;Humidity;BMP_temperature;BMP_pressure;BME280_temperature;BME280_humidity;BME280_pressure;Samples;Min_cycle;Max_cycle;Signal;HPM_P1;HPM_P2
2022/12/03 00:00:29;;;;;;;;;;;;;;;;;;10378370;28;19971;-72
2022/12/03 00:05:31;;;;;;;;;;;;;;;;;;10415185;28;19929;-72
2022/12/03 00:10:33;;;;;;;;;;;;;;;;;;10419997;28;19925;-72
2022/12/03 00:15:35;;;;;;;;;;;;;;;;;;10419153;28;19975;-73
2022/12/03 00:20:37;;;;;;;;;;;;;;;;;;10457708;28;19924;-72
2022/12/03 00:25:39;;;;;;;;;;;;;;;;;;10460681;28;19925;-72
2022/12/03 00:30:41;;;;;;;;;;;;;;;;;;10460070;28;19928;-72
2022/12/03 00:35:43;;;;;;;;;;;;;;;;;;10458664;28;20020;-72
2022/12/03 00:40:45;;;;;;;;;;;;;;;;;;10418771;28;19929;-72
2022/12/03 00:45:47;;;;;;;;;;;;;;;;;;10435148;28;19998;-72
2022/12/03 00:50:49;;;;;;;;;;;;;;;;;;10458782;28;19924;-72
2022/12/03 00:55:51;;;;;;;;;;;;;;;;;;10458992;28;19929;-72
2022/12/03 01:00:53;;;;;;;;;;;;;;;;;;10459203;28;19971;-72
2022/12/03 01:05:55;;;;;;;;;;;;;;;;;;10458386;28;19925;-72
2022/12/03 01:10:57;;;;;;;;;;;;;;;;;;10452251;28;19972;-72
2022/12/03 01:15:59;;;;;;;;;;;;;;;;;;10435399;28;19948;-73
2022/12/03 01:21:02;;;;;;;;;;;;;;;;;;10457838;28;19978;-72
2022/12/03 01:26:04;;;;;;;;;;;;;;;;;;10457690;28;19993;-72
2022/12/03 01:36:26;;;;;;;;;;;;;;;;;;10416895;28;19968;-72
2022/12/03 01:41:29;;;;;;;;;;;;;;;;;;10416279;28;19932;-72
2022/12/03 01:46:31;;;;;;;;;;;;;;;;;;10416346;28;19926;-73
2022/12/03 01:51:33;;;;;;;;;;;;;;;;;;10415543;28;19936;-72
2022/12/03 01:56:35;;;;;;;;;;;;;;;;;;10416272;28;19979;-72
2022/12/03 02:01:37;;;;;;;;;;;;;;;;;;10416225;28;19929;-72
2022/12/03 02:06:39;;;;;;;;;;;;;;;;;;10422567;28;20384;-72
2022/12/03 02:11:41;;;;;;;;;;;;;;;;;;10456859;28;19982;-72
2022/12/03 02:16:43;;;;;;;;;;;;;;;;;;10456461;28;20430;-72
2022/12/03 02:21:45;;;;;;;;;;;;;;;;;;10456392;28;19925;-72
2022/12/03 02:26:47;;;;;;;;;;;;;;;;;;10436988;28;19929;-74
2022/12/03 02:31:49;;;;;;;;;;;;;;;;;;10420451;28;20372;-72
2022/12/03 02:36:51;;;;;;;;;;;;;;;;;;10423911;28;19929;-73
2022/12/03 02:47:14;;;;;;;;;;;;;;;;;;10422477;28;19929;-72
2022/12/03 02:52:16;;;;;;;;;;;;;;;;;;10460520;28;19929;-72
2022/12/03 02:57:19;;;;;;;;;;;;;;;;;;10464065;28;19967;-72
2022/12/03 03:02:21;;;;;;;;;;;;;;;;;;10463781;28;19935;-72
2022/12/03 03:07:23;;;;;;;;;;;;;;;;;;10462841;28;20015;-72
2022/12/03 03:12:25;;;;;;;;;;;;;;;;;;10463473;28;19968;-72
2022/12/03 03:17:27;;;;;;;;;;;;;;;;;;10462675;28;19924;-73
2022/12/03 03:22:29;;;;;;;;;;;;;;;;;;10438124;28;19952;-72
2022/12/03 03:27:31;;;;;;;;;;;;;;;;;;10421704;28;19929;-72
2022/12/03 03:32:33;;;;;;;;;;;;;;;;;;10421472;28;19925;-72
2022/12/03 03:37:35;;;;;;;;;;;;;;;;;;10461085;28;20441;-72
2022/12/03 03:42:38;;;;;;;;;;;;;;;;;;10460442;28;19925;-72
2022/12/03 03:47:40;;;;;;;;;;;;;;;;;;10461861;28;19925;-72
2022/12/03 03:52:42;;;;;;;;;;;;;;;;;;10460240;28;19933;-72
2022/12/03 03:57:44;;;;;;;;;;;;;;;;;;10444623;28;19925;-72
2022/12/03 04:02:46;;;;;;;;;;;;;;;;;;10420059;28;20292;-72
2022/12/03 04:07:48;;;;;;;;;;;;;;;;;;10419516;28;19925;-72
2022/12/03 04:12:56;;;;;;;;;;;;;;;;;;10419888;28;20008;-72
2022/12/03 04:23:19;;;;;;;;;;;;;;;;;;10419208;28;19925;-72
2022/12/03 04:39:02;;;;;;;;;;;;;;;;;;10459391;28;20023;-72
2022/12/03 04:49:25;;;;;;;;;;;;;;;;;;10454402;28;20387;-72
2022/12/03 04:54:27;;;;;;;;;;;;;;;;;;10416963;28;19925;-72
2022/12/03 04:59:29;;;;;;;;;;;;;;;;;;10418102;28;19925;-72
2022/12/03 05:04:31;;;;;;;;;;;;;;;;;;10417898;28;19925;-72
2022/12/03 05:09:33;;;;;;;;;;;;;;;;;;10418012;28;19932;-72
2022/12/03 05:14:35;;;;;;;;;;;;;;;;;;10417222;28;19925;-72
2022/12/03 05:24:58;;;;;;;;;;;;;;;;;;10442170;28;19924;-72
2022/12/03 05:30:00;;;;;;;;;;;;;;;;;;10458297;28;19924;-72
2022/12/03 05:35:02;;;;;;;;;;;;;;;;;;10456519;28;20280;-72
2022/12/03 05:40:04;;;;;;;;;;;;;;;;;;10457302;28;20334;-72
2022/12/03 05:45:06;;;;;;;;;;;;;;;;;;10457778;28;19932;-72
2022/12/03 05:50:08;;;;;;;;;;;;;;;;;;10440529;28;19932;-72
2022/12/03 05:55:10;;;;;;;;;;;;;;;;;;10447541;28;19948;-72
2022/12/03 06:00:13;;;;;;;;;;;;;;;;;;10416240;28;19933;-72
2022/12/03 06:05:15;;;;;;;;;;;;;;;;;;10421653;28;19932;-72
2022/12/03 06:10:17;;;;;;;;;;;;;;;;;;10482617;28;20398;-72
2022/12/03 06:15:19;;;;;;;;;;;;;;;;;;10451559;28;19925;-72
2022/12/03 06:20:22;;;;;;;;;;;;;;;;;;10428896;28;19971;-72
2022/12/03 06:25:24;;;;;;;;;;;;;;;;;;10429494;28;19979;-72
2022/12/03 06:30:26;;;;;;;;;;;;;;;;;;10451215;28;20380;-72
2022/12/03 06:35:28;;;;;;;;;;;;;;;;;;10469649;28;19932;-72
2022/12/03 06:40:30;;;;;;;;;;;;;;;;;;10470482;28;19932;-72
2022/12/03 06:45:32;;;;;;;;;;;;;;;;;;10434442;28;19991;-72
2022/12/03 06:50:34;;;;;;;;;;;;;;;;;;10460139;28;19925;-72
2022/12/03 06:55:36;;;;;;;;;;;;;;;;;;10428795;28;20035;-72
2022/12/03 07:00:38;;;;;;;;;;;;;;;;;;10429237;28;20384;-72
2022/12/03 07:05:40;;;;;;;;;;;;;;;;;;10428100;28;19925;-72
2022/12/03 07:10:42;;;;;;;;;;;;;;;;;;10454852;28;19932;-72
2022/12/03 07:15:44;;;;;;;;;;;;;;;;;;10467138;28;19925;-72
2022/12/03 07:20:46;;;;;;;;;;;;;;;;;;10462635;28;20023;-72
2022/12/03 07:25:49;;;;;;;;;;;;;;;;;;10421827;28;19975;-72
2022/12/03 07:30:51;;;;;;;;;;;;;;;;;;10421594;28;19926;-72
2022/12/03 07:35:53;;;;;;;;;;;;;;;;;;10421406;28;20024;-72
2022/12/03 07:40:55;;;;;;;;;;;;;;;;;;10421272;28;19925;-72
2022/12/03 07:45:57;;;;;;;;;;;;;;;;;;10456821;28;20376;-72
2022/12/03 07:50:59;;;;;;;;;;;;;;;;;;10461279;28;19979;-72
2022/12/03 07:56:01;;;;;;;;;;;;;;;;;;10459452;28;19929;-72
2022/12/03 08:01:03;;;;;;;;;;;;;;;;;;10461711;28;19929;-72
2022/12/03 08:06:05;;;;;;;;;;;;;;;;;;10459564;28;19931;-72
2022/12/03 08:11:07;;;;;;;;;;;;;;;;;;10461307;28;19924;-72
2022/12/03 08:16:09;;;;;;;;;;;;;;;;;;10459556;28;20437;-72
2022/12/03 08:21:11;;;;;;;;;;;;;;;;;;10430674;28;19986;-72
2022/12/03 08:26:16;;;;;;;;;;;;;;;;;;10460015;28;19924;-72
2022/12/03 08:31:18;;;;;;;;;;;;;;;;;;10460371;28;19929;-72
2022/12/03 08:36:21;;;;;;;;;;;;;;;;;;10445062;28;19932;-72
2022/12/03 08:47:03;;;;;;;;;;;;;;;;;;10454969;28;19959;-72
2022/12/03 08:52:05;;;;;;;;;;;;;;;;;;10416305;28;19932;-72
2022/12/03 08:57:07;;;;;;;;;;;;;;;;;;10418131;28;19925;-72
2022/12/03 09:02:09;;;;;;;;;;;;;;;;;;10418566;28;19929;-72
2022/12/03 09:07:12;;;;;;;;;;;;;;;;;;10417314;28;19929;-72
2022/12/03 09:12:13;;;;;;;;;;;;;;;;;;10428057;28;20445;-72
2022/12/03 09:17:16;;;;;;;;;;;;;;;;;;10458125;28;19924;-72
2022/12/03 09:22:18;;;;;;;;;;;;;;;;;;10456246;28;19925;-72
2022/12/03 09:27:21;;;;;;;;;;;;;;;;;;10458400;28;19932;-72
2022/12/03 09:32:23;;;;;;;;;;;;;;;;;;10458153;28;19928;-72
2022/12/03 09:37:25;;;;;;;;;;;;;;;;;;10452338;28;19924;-72
2022/12/03 09:42:27;;;;;;;;;;;;;;;;;;10416181;28;19991;-72
2022/12/03 09:47:29;;;;;;;;;;;;;;;;;;10448040;28;19925;-72
2022/12/03 09:52:32;;;;;;;;;;;;;;;;;;10455695;28;19975;-72
2022/12/03 09:57:34;;;;;;;;;;;;;;;;;;10457523;28;19925;-72
2022/12/03 10:02:36;;;;;;;;;;;;;;;;;;10457171;22;19925;-68
2022/12/03 10:07:38;;;;;;;;;;;;;;;;;;10416216;28;19928;-68
2022/12/03 10:12:41;;;;;;;;;;;;;;;;;;10424197;28;19948;-69
2022/12/03 10:17:43;;;;;;;;;;;;;;;;;;10456199;28;19979;-68
2022/12/03 10:22:47;;;;;;;;;;;;;;;;;;10454784;28;19929;-69
2022/12/03 10:27:49;;;;;;;;;;;;;;;;;;10456354;28;20372;-68
2022/12/03 10:32:51;;;;;;;;;;;;;;;;;;10456789;28;19924;-69
2022/12/03 10:37:53;;;;;;;;;;;;;;;;;;10454475;28;19932;-68
2022/12/03 10:42:55;;;;;;;;;;;;;;;;;;10436766;28;19925;-68
2022/12/03 10:47:57;;;;;;;;;;;;;;;;;;10415380;28;19929;-68
2022/12/03 10:52:59;;;;;;;;;;;;;;;;;;10418638;28;20375;-69
2022/12/03 10:58:01;;;;;;;;;;;;;;;;;;10454821;28;19925;-68
2022/12/03 11:03:04;;;;;;;;;;;;;;;;;;10423559;28;19932;-68
2022/12/03 11:08:06;;;;;;;;;;;;;;;;;;10456793;28;19931;-69
2022/12/03 11:13:08;;;;;;;;;;;;;;;;;;10463568;28;19931;-68
2022/12/03 11:18:10;;;;;;;;;;;;;;;;;;10463459;28;19925;-68
2022/12/03 11:23:12;;;;;;;;;;;;;;;;;;10438496;28;19929;-68
2022/12/03 11:28:14;;;;;;;;;;;;;;;;;;10451216;28;19925;-68
2022/12/03 11:33:16;;;;;;;;;;;;;;;;;;10462822;28;19925;-68
2022/12/03 11:38:18;;;;;;;;;;;;;;;;;;10462721;28;19925;-68
2022/12/03 11:43:20;;;;;;;;;;;;;;;;;;10460819;28;19978;-68
2022/12/03 11:48:22;;;;;;;;;;;;;;;;;;10462245;28;19931;-68
2022/12/03 11:53:24;;;;;;;;;;;;;;;;;;10434391;28;19952;-68
2022/12/03 11:58:26;;;;;;;;;;;;;;;;;;10421808;28;19983;-68
2022/12/03 12:03:28;;;;;;;;;;;;;;;;;;10419608;28;19925;-68
2022/12/03 12:08:33;;;;;;;;;;;;;;;;;;10420287;28;19932;-68
2022/12/03 12:13:36;;;;;;;;;;;;;;;;;;10420068;28;19929;-68
2022/12/03 12:18:38;;;;;;;;;;;;;;;;;;10421001;28;19979;-68
2022/12/03 12:23:40;;;;;;;;;;;;;;;;;;10419127;28;20012;-69
2022/12/03 12:28:42;;;;;;;;;;;;;;;;;;10419475;28;19929;-68
2022/12/03 12:33:44;;;;;;;;;;;;;;;;;;10420786;28;20416;-68
2022/12/03 12:38:46;;;;;;;;;;;;;;;;;;10432684;28;19936;-69
2022/12/03 12:43:48;;;;;;;;;;;;;;;;;;10459462;28;19925;-69
2022/12/03 12:48:50;;;;;;;;;;;;;;;;;;10457581;28;19994;-68
2022/12/03 12:53:56;;;;;;;;;;;;;;;;;;10447640;28;20368;-68
2022/12/03 12:58:58;;;;;;;;;;;;;;;;;;10418476;28;20035;-68
2022/12/03 13:04:01;;;;;;;;;;;;;;;;;;10417301;28;20434;-68
2022/12/03 13:09:03;;;;;;;;;;;;;;;;;;10431867;28;19925;-68
2022/12/03 13:14:05;;;;;;;;;;;;;;;;;;10457416;28;19928;-68
2022/12/03 13:19:07;;;;;;;;;;;;;;;;;;10427138;28;19929;-68
2022/12/03 13:24:09;;;;;;;;;;;;;;;;;;10416704;28;19994;-68
2022/12/03 13:29:12;;;;;;;;;;;;;;;;;;10417183;28;19929;-68
2022/12/03 13:34:14;;;;;;;;;;;;;;;;;;10416895;28;19926;-68
2022/12/03 13:39:16;;;;;;;;;;;;;;;;;;10416832;28;19952;-68
2022/12/03 13:44:18;;;;;;;;;;;;;;;;;;10448280;28;19940;-68
2022/12/03 13:49:20;;;;;;;;;;;;;;;;;;10416247;28;20310;-69
2022/12/03 13:54:22;;;;;;;;;;;;;;;;;;10416449;28;19972;-68
2022/12/03 13:59:24;;;;;;;;;;;;;;;;;;10426592;28;19947;-68
2022/12/03 14:04:27;;;;;;;;;;;;;;;;;;10457016;28;19925;-68
2022/12/03 14:09:29;;;;;;;;;;;;;;;;;;10457432;28;19925;-68
2022/12/03 14:14:31;;;;;;;;;;;;;;;;;;10456529;28;19925;-68
2022/12/03 14:19:33;;;;;;;;;;;;;;;;;;10456465;28;20375;-68
2022/12/03 14:24:35;;;;;;;;;;;;;;;;;;10457366;28;19928;-68
2022/12/03 14:29:37;;;;;;;;;;;;;;;;;;10463883;28;19939;-68
2022/12/03 14:34:39;;;;;;;;;;;;;;;;;;10465091;28;19932;-68
2022/12/03 14:39:42;;;;;;;;;;;;;;;;;;10431873;28;19925;-68
2022/12/03 14:44:44;;;;;;;;;;;;;;;;;;10454517;28;20446;-68
2022/12/03 14:49:46;;;;;;;;;;;;;;;;;;10422703;28;20035;-68
2022/12/03 14:54:48;;;;;;;;;;;;;;;;;;10422402;28;19932;-68
2022/12/03 14:59:50;;;;;;;;;;;;;;;;;;10435356;28;19924;-68
2022/12/03 15:04:52;;;;;;;;;;;;;;;;;;10463577;28;19925;-68
2022/12/03 15:09:54;;;;;;;;;;;;;;;;;;10463808;28;19925;-68
2022/12/03 15:14:56;;;;;;;;;;;;;;;;;;10455912;28;19972;-68
2022/12/03 15:19:59;;;;;;;;;;;;;;;;;;10407568;28;19925;-68
2022/12/03 15:25:02;;;;;;;;;;;;;;;;;;10380458;28;20281;-68
2022/12/03 15:30:04;;;;;;;;;;;;;;;;;;10380880;28;19991;-68
2022/12/03 15:35:06;;;;;;;;;;;;;;;;;;10409143;28;19936;-68
2022/12/03 15:40:08;;;;;;;;;;;;;;;;;;10461162;28;19925;-68
2022/12/03 15:45:10;;;;;;;;;;;;;;;;;;10460806;28;19924;-68
2022/12/03 15:50:16;;;;;;;;;;;;;;;;;;10461831;28;19998;-68
2022/12/03 15:55:18;;;;;;;;;;;;;;;;;;10460341;28;19924;-68
2022/12/03 16:00:20;;;;;;;;;;;;;;;;;;10449180;28;19925;-68
2022/12/03 16:05:22;;;;;;;;;;;;;;;;;;10441213;28;19925;-68
2022/12/03 16:10:24;;;;;;;;;;;;;;;;;;10460332;28;20330;-68
2022/12/03 16:15:26;;;;;;;;;;;;;;;;;;10460969;28;20214;-68
2022/12/03 16:20:28;;;;;;;;;;;;;;;;;;10460642;28;19925;-68
2022/12/03 16:25:30;;;;;;;;;;;;;;;;;;10457180;28;19925;-68
2022/12/03 16:30:32;;;;;;;;;;;;;;;;;;10418829;28;20440;-68
2022/12/03 16:35:35;;;;;;;;;;;;;;;;;;10420137;28;20388;-68
2022/12/03 16:40:37;;;;;;;;;;;;;;;;;;10419044;28;19936;-68
2022/12/03 16:50:46;;;;;;;;;;;;;;;;;;10437977;28;19933;-68
2022/12/03 16:55:49;;;;;;;;;;;;;;;;;;10438048;28;19932;-68
2022/12/03 17:00:52;;;;;;;;;;;;;;;;;;10419920;28;19987;-68
2022/12/03 17:05:54;;;;;;;;;;;;;;;;;;10419237;28;19925;-68
2022/12/03 17:10:57;;;;;;;;;;;;;;;;;;10417230;28;19951;-68
2022/12/03 17:15:59;;;;;;;;;;;;;;;;;;10418755;28;19925;-68
2022/12/03 17:21:01;;;;;;;;;;;;;;;;;;10416904;28;20393;-68
2022/12/03 17:26:03;;;;;;;;;;;;;;;;;;10418484;28;19925;-68
2022/12/03 17:31:05;;;;;;;;;;;;;;;;;;10417195;28;19978;-68
2022/12/03 17:36:08;;;;;;;;;;;;;;;;;;10418071;28;19925;-68
2022/12/03 17:41:10;;;;;;;;;;;;;;;;;;10416873;28;19925;-68
2022/12/03 17:46:12;;;;;;;;;;;;;;;;;;10426472;28;19924;-68
2022/12/03 17:51:14;;;;;;;;;;;;;;;;;;10457138;28;20003;-68
2022/12/03 17:56:16;;;;;;;;;;;;;;;;;;10420552;28;19925;-68
2022/12/03 18:01:18;;;;;;;;;;;;;;;;;;10415892;28;19925;-68
2022/12/03 18:06:20;;;;;;;;;;;;;;;;;;10438382;28;19925;-68
2022/12/03 18:11:22;;;;;;;;;;;;;;;;;;10457371;28;19925;-68
2022/12/03 18:16:24;;;;;;;;;;;;;;;;;;10455527;28;19925;-69
2022/12/03 18:21:27;;;;;;;;;;;;;;;;;;10457186;28;19929;-68
2022/12/03 18:26:29;;;;;;;;;;;;;;;;;;10454752;28;20372;-68
2022/12/03 18:31:31;;;;;;;;;;;;;;;;;;10454016;28;20380;-68
2022/12/03 18:36:33;;;;;;;;;;;;;;;;;;10415167;28;19925;-68
2022/12/03 18:41:35;;;;;;;;;;;;;;;;;;10415551;28;19925;-68
2022/12/03 18:46:37;;;;;;;;;;;;;;;;;;10416542;28;19933;-68
2022/12/03 18:51:54;;;;;;;;;;;;;;;;;;10422681;28;19970;-68
2022/12/03 18:57:00;;;;;;;;;;;;;;;;;;10434367;28;19925;-68
2022/12/03 19:02:02;;;;;;;;;;;;;;;;;;10415240;28;19925;-68
2022/12/03 19:07:04;;;;;;;;;;;;;;;;;;10444492;28;20284;-68
2022/12/03 19:12:06;;;;;;;;;;;;;;;;;;10455551;28;19978;-68
2022/12/03 19:17:15;;;;;;;;;;;;;;;;;;10462952;28;20008;-68
2022/12/03 19:22:17;;;;;;;;;;;;;;;;;;10463405;28;19929;-68
2022/12/03 19:27:19;;;;;;;;;;;;;;;;;;10462399;28;20363;-68
2022/12/03 19:32:21;;;;;;;;;;;;;;;;;;10447847;28;19925;-68
2022/12/03 19:37:23;;;;;;;;;;;;;;;;;;10420930;28;20415;-68
2022/12/03 19:42:25;;;;;;;;;;;;;;;;;;10421440;28;19975;-69
2022/12/03 19:47:28;;;;;;;;;;;;;;;;;;10421268;28;19936;-68
2022/12/03 19:52:30;;;;;;;;;;;;;;;;;;10432814;28;19948;-68
2022/12/03 19:57:32;;;;;;;;;;;;;;;;;;10410490;28;19925;-67
2022/12/03 20:02:34;;;;;;;;;;;;;;;;;;10420474;28;19932;-67
2022/12/03 20:07:36;;;;;;;;;;;;;;;;;;10425046;28;19979;-68
2022/12/03 20:12:38;;;;;;;;;;;;;;;;;;10420256;28;19983;-68
2022/12/03 20:17:40;;;;;;;;;;;;;;;;;;10424680;28;19925;-68
2022/12/03 20:22:42;;;;;;;;;;;;;;;;;;10460323;28;20391;-68
2022/12/03 20:27:44;;;;;;;;;;;;;;;;;;10460863;28;19978;-67
2022/12/03 20:32:46;;;;;;;;;;;;;;;;;;10452325;28;20392;-68
2022/12/03 20:37:48;;;;;;;;;;;;;;;;;;10419165;28;19975;-68
2022/12/03 20:42:50;;;;;;;;;;;;;;;;;;10418413;28;19929;-67
2022/12/03 20:47:52;;;;;;;;;;;;;;;;;;10419777;28;19951;-67
2022/12/03 20:52:54;;;;;;;;;;;;;;;;;;10422739;28;19925;-67
2022/12/03 20:58:16;;;;;;;;;;;;;;;;;;10417790;28;19925;-68
2022/12/03 21:03:20;;;;;;;;;;;;;;;;;;10422464;28;20059;-67
2022/12/03 21:08:22;;;;;;;;;;;;;;;;;;10458598;28;19947;-68
2022/12/03 21:13:42;;;;;;;;;;;;;;;;;;10457481;28;19925;-67
2022/12/03 21:18:44;;;;;;;;;;;;;;;;;;10458852;28;19925;-68
2022/12/03 21:23:46;;;;;;;;;;;;;;;;;;10457644;28;19924;-68
2022/12/03 21:28:48;;;;;;;;;;;;;;;;;;10417269;28;19929;-67
2022/12/03 21:33:50;;;;;;;;;;;;;;;;;;10416453;28;19929;-68
2022/12/03 21:38:53;;;;;;;;;;;;;;;;;;10415743;28;19925;-67
2022/12/03 21:43:55;;;;;;;;;;;;;;;;;;10449374;28;19925;-68
2022/12/03 21:48:57;;;;;;;;;;;;;;;;;;10416698;28;19932;-67
2022/12/03 21:53:59;;;;;;;;;;;;;;;;;;10434530;28;19952;-67
2022/12/03 21:59:01;;;;;;;;;;;;;;;;;;10455964;28;19986;-67
2022/12/03 22:04:03;;;;;;;;;;;;;;;;;;10415780;28;19925;-68
2022/12/03 22:09:05;;;;;;;;;;;;;;;;;;10416182;28;19929;-67
2022/12/03 22:14:08;;;;;;;;;;;;;;;;;;10446877;28;20330;-67
2022/12/03 22:19:10;;;;;;;;;;;;;;;;;;10446579;22;19926;-71
2022/12/03 22:24:12;;;;;;;;;;;;;;;;;;10452873;28;19925;-70
2022/12/03 22:29:14;;;;;;;;;;;;;;;;;;10456984;28;19925;-70
2022/12/03 22:34:16;;;;;;;;;;;;;;;;;;10456209;28;20287;-70
2022/12/03 22:39:19;;;;;;;;;;;;;;;;;;10455823;28;19925;-70
2022/12/03 22:44:21;;;;;;;;;;;;;;;;;;10420154;28;20384;-71
2022/12/03 22:49:23;;;;;;;;;;;;;;;;;;10445873;28;19925;-70
2022/12/03 22:54:25;;;;;;;;;;;;;;;;;;10463837;28;19976;-71
2022/12/03 22:59:27;;;;;;;;;;;;;;;;;;10438998;28;19971;-70
2022/12/03 23:04:29;;;;;;;;;;;;;;;;;;10422985;28;19929;-71
2022/12/03 23:09:31;;;;;;;;;;;;;;;;;;10422761;28;19979;-71
2022/12/03 23:14:33;;;;;;;;;;;;;;;;;;10423539;28;19987;-70
2022/12/03 23:19:35;;;;;;;;;;;;;;;;;;10453714;28;19925;-70
2022/12/03 23:24:37;;;;;;;;;;;;;;;;;;10421539;28;19925;-70
2022/12/03 23:29:39;;;;;;;;;;;;;;;;;;10421959;28;19925;-70
2022/12/03 23:34:41;;;;;;;;;;;;;;;;;;10421694;28;19929;-70
2022/12/03 23:39:43;;;;;;;;;;;;;;;;;;10421584;28;20012;-71
2022/12/03 23:44:45;;;;;;;;;;;;;;;;;;10443223;28;20430;-70
2022/12/03 23:49:47;;;;;;;;;;;;;;;;;;10462410;28;19925;-70
2022/12/03 23:54:49;;;;;;;;;;;;;;;;;;10462051;28;19932;-71
2022/12/03 23:59:51;;;;;;;;;;;;;;;;;;10460380;28;20261;-71
